sensor_id;sensor_type;location;lat;lon;timestamp;temperature;humidity
2212;DHT22;48849;48.758;9.158;2023-04-25T00:01:57;12.60;99.90
2212;DHT22;48849;48.758;9.158;2023-04-25T00:04:25;12.70;99.90
2212;DHT22;48849;48.758;9.158;2023-04-25T00:06:55;12.60;99.90
2212;DHT22;48849;48.758;9.158;2023-04-25T00:09:23;12.60;99.90
2212;DHT22;48849;48.758;9.158;2023-04-25T00:11:50;12.50;99.90
2212;DHT22;48849;48.758;9.158;2023-04-25T00:14:19;12.60;99.90
2212;DHT22;48849;48.758;9.158;2023-04-25T00:16:46;12.80;99.90
2212;DHT22;48849;48.758;9.158;2023-04-25T00:19:13;12.70;99.90
2212;DHT22;48849;48.758;9.158;2023-04-25T00:21:41;12.70;99.90
2212;DHT22;48849;48.758;9.158;2023-04-25T00:24:08;12.70;99.90
2212;DHT22;48849;48.758;9.158;2023-04-25T00:26:36;12.70;99.90
2212;DHT22;48849;48.758;9.158;2023-04-25T00:29:06;12.70;99.90
2212;DHT22;48849;48.758;9.158;2023-04-25T00:31:38;12.70;99.90
2212;DHT22;48849;48.758;9.158;2023-04-25T00:34:12;12.70;99.90
2212;DHT22;48849;48.758;9.158;2023-04-25T00:36:46;12.70;99.90
2212;DHT22;48849;48.758;9.158;2023-04-25T00:39:12;14.20;99.90
2212;DHT22;48849;48.758;9.158;2023-04-25T00:41:40;12.70;99.90
2212;DHT22;48849;48.758;9.158;2023-04-25T00:44:09;12.60;99.90
2212;DHT22;48849;48.758;9.158;2023-04-25T00:46:38;12.60;99.90
2212;DHT22;48849;48.758;9.158;2023-04-25T00:49:05;12.60;99.90
2212;DHT22;48849;48.758;9.158;2023-04-25T00:51:33;13.40;99.90
2212;DHT22;48849;48.758;9.158;2023-04-25T00:54:00;13.20;99.90
2212;DHT22;48849;48.758;9.158;2023-04-25T00:59:22;12.70;99.90
2212;DHT22;48849;48.758;9.158;2023-04-25T01:01:56;12.70;99.90
2212;DHT22;48849;48.758;9.158;2023-04-25T01:04:23;12.60;99.90
2212;DHT22;48849;48.758;9.158;2023-04-25T01:06:53;12.60;99.90
2212;DHT22;48849;48.758;9.158;2023-04-25T01:09:22;13.90;99.90
2212;DHT22;48849;48.758;9.158;2023-04-25T01:11:49;12.60;99.90
2212;DHT22;48849;48.758;9.158;2023-04-25T01:14:16;12.70;99.90
2212;DHT22;48849;48.758;9.158;2023-04-25T01:16:43;12.60;99.90
2212;DHT22;48849;48.758;9.158;2023-04-25T01:19:16;12.50;99.90
2212;DHT22;48849;48.758;9.158;2023-04-25T01:21:45;12.50;99.90
2212;DHT22;48849;48.758;9.158;2023-04-25T01:24:13;12.50;99.90
2212;DHT22;48849;48.758;9.158;2023-04-25T01:26:41;12.40;99.90
2212;DHT22;48849;48.758;9.158;2023-04-25T01:29:15;12.40;99.90
2212;DHT22;48849;48.758;9.158;2023-04-25T01:31:42;12.40;99.90
2212;DHT22;48849;48.758;9.158;2023-04-25T01:34:11;12.40;99.90
2212;DHT22;48849;48.758;9.158;2023-04-25T01:36:38;12.40;99.90
2212;DHT22;48849;48.758;9.158;2023-04-25T01:39:11;12.40;99.90
2212;DHT22;48849;48.758;9.158;2023-04-25T01:41:38;12.40;99.90
2212;DHT22;48849;48.758;9.158;2023-04-25T01:44:06;12.50;99.90
2212;DHT22;48849;48.758;9.158;2023-04-25T01:46:34;12.50;99.90
2212;DHT22;48849;48.758;9.158;2023-04-25T01:49:02;12.60;99.90
2212;DHT22;48849;48.758;9.158;2023-04-25T01:51:30;12.50;99.90
2212;DHT22;48849;48.758;9.158;2023-04-25T01:53:58;12.50;99.90
2212;DHT22;48849;48.758;9.158;2023-04-25T01:56:30;12.50;99.90
2212;DHT22;48849;48.758;9.158;2023-04-25T02:01:55;12.50;99.90
2212;DHT22;48849;48.758;9.158;2023-04-25T02:04:23;12.80;99.90
2212;DHT22;48849;48.758;9.158;2023-04-25T02:06:52;12.50;99.90
2212;DHT22;48849;48.758;9.158;2023-04-25T02:09:22;12.40;99.90
2212;DHT22;48849;48.758;9.158;2023-04-25T02:11:52;12.40;99.90
2212;DHT22;48849;48.758;9.158;2023-04-25T02:14:20;12.90;99.90
2212;DHT22;48849;48.758;9.158;2023-04-25T02:25:05;12.50;99.90
2212;DHT22;48849;48.758;9.158;2023-04-25T02:27:49;12.40;99.90
2212;DHT22;48849;48.758;9.158;2023-04-25T02:30:36;12.50;99.90
2212;DHT22;48849;48.758;9.158;2023-04-25T02:33:04;12.70;99.90
2212;DHT22;48849;48.758;9.158;2023-04-25T02:46:59;12.40;99.90
2212;DHT22;48849;48.758;9.158;2023-04-25T03:38:24;12.20;99.90
2212;DHT22;48849;48.758;9.158;2023-04-25T03:49:29;12.10;99.90
2212;DHT22;48849;48.758;9.158;2023-04-25T04:27:08;11.90;99.90
2212;DHT22;48849;48.758;9.158;2023-04-25T04:48:43;11.80;99.90
2212;DHT22;48849;48.758;9.158;2023-04-25T05:20:09;11.90;99.90
2212;DHT22;48849;48.758;9.158;2023-04-25T05:23:07;12.00;99.90
2212;DHT22;48849;48.758;9.158;2023-04-25T05:28:25;12.00;99.90
2212;DHT22;48849;48.758;9.158;2023-04-25T05:36:33;11.80;99.90
2212;DHT22;48849;48.758;9.158;2023-04-25T05:39:02;12.30;99.90
2212;DHT22;48849;48.758;9.158;2023-04-25T05:49:40;12.10;99.90
2212;DHT22;48849;48.758;9.158;2023-04-25T05:52:13;12.10;99.90
2212;DHT22;48849;48.758;9.158;2023-04-25T05:54:44;12.20;99.90
2212;DHT22;48849;48.758;9.158;2023-04-25T05:57:31;12.20;99.90
2212;DHT22;48849;48.758;9.158;2023-04-25T06:00:01;13.00;99.90
2212;DHT22;48849;48.758;9.158;2023-04-25T06:02:34;12.20;99.90
2212;DHT22;48849;48.758;9.158;2023-04-25T06:05:03;12.50;99.90
2212;DHT22;48849;48.758;9.158;2023-04-25T06:07:32;12.20;99.90
2212;DHT22;48849;48.758;9.158;2023-04-25T06:10:00;13.00;99.90
2212;DHT22;48849;48.758;9.158;2023-04-25T06:12:31;12.30;99.90
2212;DHT22;48849;48.758;9.158;2023-04-25T06:14:58;12.30;99.90
2212;DHT22;48849;48.758;9.158;2023-04-25T06:17:30;12.30;99.90
2212;DHT22;48849;48.758;9.158;2023-04-25T06:19:58;12.30;99.90
2212;DHT22;48849;48.758;9.158;2023-04-25T06:22:25;12.40;99.90
2212;DHT22;48849;48.758;9.158;2023-04-25T06:24:54;12.40;99.90
2212;DHT22;48849;48.758;9.158;2023-04-25T06:27:24;12.40;99.90
2212;DHT22;48849;48.758;9.158;2023-04-25T06:29:51;12.40;99.90
2212;DHT22;48849;48.758;9.158;2023-04-25T06:32:18;12.40;99.90
2212;DHT22;48849;48.758;9.158;2023-04-25T06:34:45;12.50;99.90
2212;DHT22;48849;48.758;9.158;2023-04-25T06:37:12;12.40;99.90
2212;DHT22;48849;48.758;9.158;2023-04-25T06:39:38;12.50;99.90
2212;DHT22;48849;48.758;9.158;2023-04-25T06:42:06;12.50;99.90
2212;DHT22;48849;48.758;9.158;2023-04-25T06:44:33;12.50;99.90
2212;DHT22;48849;48.758;9.158;2023-04-25T06:47:01;12.40;99.90
2212;DHT22;48849;48.758;9.158;2023-04-25T06:49:28;12.40;99.90
2212;DHT22;48849;48.758;9.158;2023-04-25T06:51:55;12.50;99.90
2212;DHT22;48849;48.758;9.158;2023-04-25T06:54:22;12.40;99.90
2212;DHT22;48849;48.758;9.158;2023-04-25T06:56:50;12.40;99.90
2212;DHT22;48849;48.758;9.158;2023-04-25T06:59:18;12.40;99.90
2212;DHT22;48849;48.758;9.158;2023-04-25T07:01:45;12.50;99.90
2212;DHT22;48849;48.758;9.158;2023-04-25T07:04:12;12.50;99.90
2212;DHT22;48849;48.758;9.158;2023-04-25T07:06:39;12.50;99.90
2212;DHT22;48849;48.758;9.158;2023-04-25T07:09:08;12.50;99.90
2212;DHT22;48849;48.758;9.158;2023-04-25T07:11:35;12.60;99.90
2212;DHT22;48849;48.758;9.158;2023-04-25T07:14:02;12.40;99.90
2212;DHT22;48849;48.758;9.158;2023-04-25T07:16:30;12.30;99.90
2212;DHT22;48849;48.758;9.158;2023-04-25T07:18:57;12.30;99.90
2212;DHT22;48849;48.758;9.158;2023-04-25T07:21:25;12.40;99.90
2212;DHT22;48849;48.758;9.158;2023-04-25T07:23:52;12.40;99.90
2212;DHT22;48849;48.758;9.158;2023-04-25T07:26:19;12.40;99.90
2212;DHT22;48849;48.758;9.158;2023-04-25T07:28:46;12.40;99.90
2212;DHT22;48849;48.758;9.158;2023-04-25T07:31:16;12.40;99.90
2212;DHT22;48849;48.758;9.158;2023-04-25T07:33:45;12.40;99.90
2212;DHT22;48849;48.758;9.158;2023-04-25T07:36:12;12.40;99.90
2212;DHT22;48849;48.758;9.158;2023-04-25T07:38:41;12.40;99.90
2212;DHT22;48849;48.758;9.158;2023-04-25T07:41:08;12.30;99.90
2212;DHT22;48849;48.758;9.158;2023-04-25T07:43:35;12.30;99.90
2212;DHT22;48849;48.758;9.158;2023-04-25T07:46:02;12.30;99.90
2212;DHT22;48849;48.758;9.158;2023-04-25T07:48:29;12.30;99.90
2212;DHT22;48849;48.758;9.158;2023-04-25T07:51:00;12.30;99.90
2212;DHT22;48849;48.758;9.158;2023-04-25T07:53:29;12.30;99.90
2212;DHT22;48849;48.758;9.158;2023-04-25T07:55:56;12.30;99.90
2212;DHT22;48849;48.758;9.158;2023-04-25T07:58:23;12.30;99.90
2212;DHT22;48849;48.758;9.158;2023-04-25T08:00:51;12.20;99.90
2212;DHT22;48849;48.758;9.158;2023-04-25T08:03:17;12.20;99.90
2212;DHT22;48849;48.758;9.158;2023-04-25T08:05:45;12.20;99.90
2212;DHT22;48849;48.758;9.158;2023-04-25T08:08:14;12.20;99.90
2212;DHT22;48849;48.758;9.158;2023-04-25T08:10:41;12.10;99.90
2212;DHT22;48849;48.758;9.158;2023-04-25T08:13:09;12.10;99.90
2212;DHT22;48849;48.758;9.158;2023-04-25T08:15:36;12.20;99.90
2212;DHT22;48849;48.758;9.158;2023-04-25T08:18:17;12.10;99.90
2212;DHT22;48849;48.758;9.158;2023-04-25T08:20:43;12.20;99.90
2212;DHT22;48849;48.758;9.158;2023-04-25T08:23:10;12.10;99.90
2212;DHT22;48849;48.758;9.158;2023-04-25T08:25:39;12.20;99.90
2212;DHT22;48849;48.758;9.158;2023-04-25T08:28:06;12.20;99.90
2212;DHT22;48849;48.758;9.158;2023-04-25T08:30:33;12.20;99.90
2212;DHT22;48849;48.758;9.158;2023-04-25T08:33:00;12.20;99.90
2212;DHT22;48849;48.758;9.158;2023-04-25T08:35:27;12.30;99.90
2212;DHT22;48849;48.758;9.158;2023-04-25T08:37:58;12.30;99.90
2212;DHT22;48849;48.758;9.158;2023-04-25T08:40:27;12.30;99.90
2212;DHT22;48849;48.758;9.158;2023-04-25T08:42:57;12.40;99.90
2212;DHT22;48849;48.758;9.158;2023-04-25T08:45:26;12.20;99.90
2212;DHT22;48849;48.758;9.158;2023-04-25T08:47:54;12.10;99.90
2212;DHT22;48849;48.758;9.158;2023-04-25T08:50:24;12.20;99.90
2212;DHT22;48849;48.758;9.158;2023-04-25T08:52:53;12.20;99.90
2212;DHT22;48849;48.758;9.158;2023-04-25T08:55:21;12.20;99.90
2212;DHT22;48849;48.758;9.158;2023-04-25T08:57:54;12.20;99.90
2212;DHT22;48849;48.758;9.158;2023-04-25T09:00:23;12.20;99.90
2212;DHT22;48849;48.758;9.158;2023-04-25T09:02:50;12.20;99.90
2212;DHT22;48849;48.758;9.158;2023-04-25T09:05:17;12.20;99.90
2212;DHT22;48849;48.758;9.158;2023-04-25T09:07:45;12.20;99.90
2212;DHT22;48849;48.758;9.158;2023-04-25T09:10:12;12.20;99.90
2212;DHT22;48849;48.758;9.158;2023-04-25T09:12:38;12.20;99.90
2212;DHT22;48849;48.758;9.158;2023-04-25T09:15:07;12.20;99.90
2212;DHT22;48849;48.758;9.158;2023-04-25T09:17:35;12.20;99.90
2212;DHT22;48849;48.758;9.158;2023-04-25T09:20:07;12.20;99.90
2212;DHT22;48849;48.758;9.158;2023-04-25T09:22:34;12.20;99.90
2212;DHT22;48849;48.758;9.158;2023-04-25T09:25:08;12.20;99.90
2212;DHT22;48849;48.758;9.158;2023-04-25T09:27:36;12.30;99.90
2212;DHT22;48849;48.758;9.158;2023-04-25T09:30:03;12.20;99.90
2212;DHT22;48849;48.758;9.158;2023-04-25T09:32:38;12.20;99.90
2212;DHT22;48849;48.758;9.158;2023-04-25T09:35:07;12.20;99.90
2212;DHT22;48849;48.758;9.158;2023-04-25T09:37:35;12.10;99.90
2212;DHT22;48849;48.758;9.158;2023-04-25T09:40:06;12.20;99.90
2212;DHT22;48849;48.758;9.158;2023-04-25T09:42:33;12.10;99.90
2212;DHT22;48849;48.758;9.158;2023-04-25T09:45:01;12.10;99.90
2212;DHT22;48849;48.758;9.158;2023-04-25T09:47:29;12.10;99.90
2212;DHT22;48849;48.758;9.158;2023-04-25T09:49:57;12.20;99.90
2212;DHT22;48849;48.758;9.158;2023-04-25T09:52:25;12.20;99.90
2212;DHT22;48849;48.758;9.158;2023-04-25T09:54:52;12.20;99.90
2212;DHT22;48849;48.758;9.158;2023-04-25T09:57:20;12.20;99.90
2212;DHT22;48849;48.758;9.158;2023-04-25T09:59:49;12.10;99.90
2212;DHT22;48849;48.758;9.158;2023-04-25T10:02:20;12.10;99.90
2212;DHT22;48849;48.758;9.158;2023-04-25T10:04:49;12.00;99.90
2212;DHT22;48849;48.758;9.158;2023-04-25T10:07:23;12.00;99.90
2212;DHT22;48849;48.758;9.158;2023-04-25T10:10:00;11.90;99.90
2212;DHT22;48849;48.758;9.158;2023-04-25T10:12:31;11.90;99.90
2212;DHT22;48849;48.758;9.158;2023-04-25T10:15:00;11.90;99.90
2212;DHT22;48849;48.758;9.158;2023-04-25T10:17:30;11.90;99.90
2212;DHT22;48849;48.758;9.158;2023-04-25T10:20:01;11.90;99.90
2212;DHT22;48849;48.758;9.158;2023-04-25T10:22:36;11.90;99.90
2212;DHT22;48849;48.758;9.158;2023-04-25T10:25:05;12.00;99.90
2212;DHT22;48849;48.758;9.158;2023-04-25T10:27:34;12.00;99.90
2212;DHT22;48849;48.758;9.158;2023-04-25T10:30:01;12.00;99.90
2212;DHT22;48849;48.758;9.158;2023-04-25T10:32:32;12.00;99.90
2212;DHT22;48849;48.758;9.158;2023-04-25T10:35:10;12.00;99.90
2212;DHT22;48849;48.758;9.158;2023-04-25T10:37:56;12.00;99.90
2212;DHT22;48849;48.758;9.158;2023-04-25T10:40:24;12.00;99.90
2212;DHT22;48849;48.758;9.158;2023-04-25T10:42:52;12.00;99.90
2212;DHT22;48849;48.758;9.158;2023-04-25T10:45:22;11.90;99.90
2212;DHT22;48849;48.758;9.158;2023-04-25T10:47:49;11.90;99.90
2212;DHT22;48849;48.758;9.158;2023-04-25T10:50:16;12.00;99.90
2212;DHT22;48849;48.758;9.158;2023-04-25T10:52:44;11.80;99.90
2212;DHT22;48849;48.758;9.158;2023-04-25T10:55:12;11.80;99.90
2212;DHT22;48849;48.758;9.158;2023-04-25T10:57:40;11.90;99.90
2212;DHT22;48849;48.758;9.158;2023-04-25T11:00:11;11.90;99.90
2212;DHT22;48849;48.758;9.158;2023-04-25T11:02:44;11.90;99.90
2212;DHT22;48849;48.758;9.158;2023-04-25T11:05:20;11.90;99.90
2212;DHT22;48849;48.758;9.158;2023-04-25T11:07:52;11.90;99.90
2212;DHT22;48849;48.758;9.158;2023-04-25T11:10:20;11.90;99.90
2212;DHT22;48849;48.758;9.158;2023-04-25T11:12:51;11.90;99.90
2212;DHT22;48849;48.758;9.158;2023-04-25T11:15:18;11.90;99.90
2212;DHT22;48849;48.758;9.158;2023-04-25T11:17:45;11.90;99.90
2212;DHT22;48849;48.758;9.158;2023-04-25T11:20:12;11.90;99.90
2212;DHT22;48849;48.758;9.158;2023-04-25T11:22:41;12.00;99.90
2212;DHT22;48849;48.758;9.158;2023-04-25T11:25:13;11.90;99.90
2212;DHT22;48849;48.758;9.158;2023-04-25T11:27:49;11.90;99.90
2212;DHT22;48849;48.758;9.158;2023-04-25T11:30:18;11.90;99.90
2212;DHT22;48849;48.758;9.158;2023-04-25T11:32:45;11.90;99.90
2212;DHT22;48849;48.758;9.158;2023-04-25T11:35:13;11.90;99.90
2212;DHT22;48849;48.758;9.158;2023-04-25T11:37:41;11.90;99.90
2212;DHT22;48849;48.758;9.158;2023-04-25T11:40:10;11.90;99.90
2212;DHT22;48849;48.758;9.158;2023-04-25T11:42:38;11.90;99.90
2212;DHT22;48849;48.758;9.158;2023-04-25T11:45:06;12.00;99.90
2212;DHT22;48849;48.758;9.158;2023-04-25T11:47:33;11.90;99.90
2212;DHT22;48849;48.758;9.158;2023-04-25T11:50:01;11.90;99.90
2212;DHT22;48849;48.758;9.158;2023-04-25T11:52:38;11.90;99.90
2212;DHT22;48849;48.758;9.158;2023-04-25T11:55:07;11.90;99.90
2212;DHT22;48849;48.758;9.158;2023-04-25T11:57:40;11.90;99.90
2212;DHT22;48849;48.758;9.158;2023-04-25T12:00:12;11.90;99.90
2212;DHT22;48849;48.758;9.158;2023-04-25T12:02:41;11.90;99.90
2212;DHT22;48849;48.758;9.158;2023-04-25T12:05:09;11.90;99.90
2212;DHT22;48849;48.758;9.158;2023-04-25T12:07:36;11.90;99.90
2212;DHT22;48849;48.758;9.158;2023-04-25T12:10:19;11.90;99.90
2212;DHT22;48849;48.758;9.158;2023-04-25T12:12:50;11.90;99.90
2212;DHT22;48849;48.758;9.158;2023-04-25T12:15:18;11.90;99.90
2212;DHT22;48849;48.758;9.158;2023-04-25T12:17:54;11.90;99.90
2212;DHT22;48849;48.758;9.158;2023-04-25T12:20:31;11.90;99.90
2212;DHT22;48849;48.758;9.158;2023-04-25T12:23:13;11.90;99.90
2212;DHT22;48849;48.758;9.158;2023-04-25T12:25:44;11.90;99.90
2212;DHT22;48849;48.758;9.158;2023-04-25T12:28:28;11.90;99.90
2212;DHT22;48849;48.758;9.158;2023-04-25T12:34:48;11.80;99.90
2212;DHT22;48849;48.758;9.158;2023-04-25T12:37:15;11.90;99.90
2212;DHT22;48849;48.758;9.158;2023-04-25T12:39:42;12.00;99.90
2212;DHT22;48849;48.758;9.158;2023-04-25T12:42:13;12.00;99.90
2212;DHT22;48849;48.758;9.158;2023-04-25T12:44:42;12.00;99.90
2212;DHT22;48849;48.758;9.158;2023-04-25T12:47:09;12.00;99.90
2212;DHT22;48849;48.758;9.158;2023-04-25T12:49:36;12.10;99.90
2212;DHT22;48849;48.758;9.158;2023-04-25T12:52:06;12.10;99.90
2212;DHT22;48849;48.758;9.158;2023-04-25T12:54:46;12.10;99.90
2212;DHT22;48849;48.758;9.158;2023-04-25T12:57:16;12.10;99.90
2212;DHT22;48849;48.758;9.158;2023-04-25T12:59:52;12.10;99.90
2212;DHT22;48849;48.758;9.158;2023-04-25T13:02:35;12.20;99.90
2212;DHT22;48849;48.758;9.158;2023-04-25T13:05:38;12.20;99.90
2212;DHT22;48849;48.758;9.158;2023-04-25T13:08:08;12.20;99.90
2212;DHT22;48849;48.758;9.158;2023-04-25T13:10:36;12.30;99.90
2212;DHT22;48849;48.758;9.158;2023-04-25T13:13:08;12.20;99.90
2212;DHT22;48849;48.758;9.158;2023-04-25T13:15:45;12.30;99.90
2212;DHT22;48849;48.758;9.158;2023-04-25T13:18:21;12.30;99.90
2212;DHT22;48849;48.758;9.158;2023-04-25T13:20:51;12.40;99.90
2212;DHT22;48849;48.758;9.158;2023-04-25T13:23:19;12.50;99.90
2212;DHT22;48849;48.758;9.158;2023-04-25T13:29:26;12.60;99.90
2212;DHT22;48849;48.758;9.158;2023-04-25T13:32:09;12.60;99.90
2212;DHT22;48849;48.758;9.158;2023-04-25T13:34:36;12.70;99.90
2212;DHT22;48849;48.758;9.158;2023-04-25T13:37:03;12.70;99.90
2212;DHT22;48849;48.758;9.158;2023-04-25T13:40:07;12.70;99.90
2212;DHT22;48849;48.758;9.158;2023-04-25T13:42:27;12.70;99.90
2212;DHT22;48849;48.758;9.158;2023-04-25T13:44:55;12.70;99.90
2212;DHT22;48849;48.758;9.158;2023-04-25T13:47:25;12.70;99.90
2212;DHT22;48849;48.758;9.158;2023-04-25T13:49:51;12.70;99.90
2212;DHT22;48849;48.758;9.158;2023-04-25T13:52:21;12.70;99.90
2212;DHT22;48849;48.758;9.158;2023-04-25T13:55:06;12.70;99.90
2212;DHT22;48849;48.758;9.158;2023-04-25T13:57:36;12.60;99.90
2212;DHT22;48849;48.758;9.158;2023-04-25T14:00:05;12.60;99.90
2212;DHT22;48849;48.758;9.158;2023-04-25T14:02:35;12.70;99.90
2212;DHT22;48849;48.758;9.158;2023-04-25T14:05:05;12.80;99.90
2212;DHT22;48849;48.758;9.158;2023-04-25T14:07:34;12.60;99.90
2212;DHT22;48849;48.758;9.158;2023-04-25T14:10:01;12.60;99.90
2212;DHT22;48849;48.758;9.158;2023-04-25T14:12:29;12.80;99.90
2212;DHT22;48849;48.758;9.158;2023-04-25T14:14:56;12.80;99.90
2212;DHT22;48849;48.758;9.158;2023-04-25T14:17:23;12.90;99.90
2212;DHT22;48849;48.758;9.158;2023-04-25T14:19:53;12.80;99.90
2212;DHT22;48849;48.758;9.158;2023-04-25T14:22:20;12.90;99.90
2212;DHT22;48849;48.758;9.158;2023-04-25T14:24:47;12.90;99.90
2212;DHT22;48849;48.758;9.158;2023-04-25T14:27:37;12.90;99.90
2212;DHT22;48849;48.758;9.158;2023-04-25T14:30:05;12.90;99.90
2212;DHT22;48849;48.758;9.158;2023-04-25T14:32:34;13.00;99.90
2212;DHT22;48849;48.758;9.158;2023-04-25T14:35:03;13.10;99.90
2212;DHT22;48849;48.758;9.158;2023-04-25T14:37:30;13.10;99.90
2212;DHT22;48849;48.758;9.158;2023-04-25T14:39:57;13.10;99.90
2212;DHT22;48849;48.758;9.158;2023-04-25T14:42:24;13.00;99.90
2212;DHT22;48849;48.758;9.158;2023-04-25T14:44:51;13.10;99.90
2212;DHT22;48849;48.758;9.158;2023-04-25T14:47:18;13.10;99.90
2212;DHT22;48849;48.758;9.158;2023-04-25T14:49:45;13.10;99.90
2212;DHT22;48849;48.758;9.158;2023-04-25T14:52:21;13.00;99.90
2212;DHT22;48849;48.758;9.158;2023-04-25T14:54:48;13.00;99.90
2212;DHT22;48849;48.758;9.158;2023-04-25T14:57:15;13.00;99.90
2212;DHT22;48849;48.758;9.158;2023-04-25T14:59:42;13.00;99.90
2212;DHT22;48849;48.758;9.158;2023-04-25T15:02:09;13.00;99.90
2212;DHT22;48849;48.758;9.158;2023-04-25T15:04:36;13.00;99.90
2212;DHT22;48849;48.758;9.158;2023-04-25T15:07:10;13.00;99.90
2212;DHT22;48849;48.758;9.158;2023-04-25T15:09:38;13.00;99.90
2212;DHT22;48849;48.758;9.158;2023-04-25T15:12:06;13.10;99.90
2212;DHT22;48849;48.758;9.158;2023-04-25T15:14:34;13.20;99.90
2212;DHT22;48849;48.758;9.158;2023-04-25T15:17:01;13.20;99.90
2212;DHT22;48849;48.758;9.158;2023-04-25T15:19:28;13.20;99.90
2212;DHT22;48849;48.758;9.158;2023-04-25T15:21:56;13.20;99.90
2212;DHT22;48849;48.758;9.158;2023-04-25T15:24:26;13.20;99.90
2212;DHT22;48849;48.758;9.158;2023-04-25T15:26:55;13.20;99.90
2212;DHT22;48849;48.758;9.158;2023-04-25T15:29:22;13.20;99.90
2212;DHT22;48849;48.758;9.158;2023-04-25T15:31:48;13.20;99.90
2212;DHT22;48849;48.758;9.158;2023-04-25T15:34:15;13.20;99.90
2212;DHT22;48849;48.758;9.158;2023-04-25T15:36:59;13.20;99.90
2212;DHT22;48849;48.758;9.158;2023-04-25T15:39:31;13.20;99.90
2212;DHT22;48849;48.758;9.158;2023-04-25T15:42:06;13.20;99.90
2212;DHT22;48849;48.758;9.158;2023-04-25T15:44:34;13.30;99.90
2212;DHT22;48849;48.758;9.158;2023-04-25T15:47:06;13.20;99.90
2212;DHT22;48849;48.758;9.158;2023-04-25T15:49:36;13.20;99.90
2212;DHT22;48849;48.758;9.158;2023-04-25T15:52:03;13.20;99.90
2212;DHT22;48849;48.758;9.158;2023-04-25T15:54:36;13.20;99.90
2212;DHT22;48849;48.758;9.158;2023-04-25T15:57:11;13.20;99.90
2212;DHT22;48849;48.758;9.158;2023-04-25T15:59:41;13.20;99.90
2212;DHT22;48849;48.758;9.158;2023-04-25T16:02:11;13.10;99.90
2212;DHT22;48849;48.758;9.158;2023-04-25T16:04:41;13.10;99.90
2212;DHT22;48849;48.758;9.158;2023-04-25T16:07:13;13.10;99.90
2212;DHT22;48849;48.758;9.158;2023-04-25T16:09:58;13.10;99.90
2212;DHT22;48849;48.758;9.158;2023-04-25T16:12:30;13.10;99.90
2212;DHT22;48849;48.758;9.158;2023-04-25T16:14:58;13.00;99.90
2212;DHT22;48849;48.758;9.158;2023-04-25T16:17:25;13.00;99.90
2212;DHT22;48849;48.758;9.158;2023-04-25T16:19:58;12.90;99.90
2212;DHT22;48849;48.758;9.158;2023-04-25T16:22:29;12.90;99.90
2212;DHT22;48849;48.758;9.158;2023-04-25T16:25:02;12.90;99.90
2212;DHT22;48849;48.758;9.158;2023-04-25T16:27:37;12.80;99.90
2212;DHT22;48849;48.758;9.158;2023-04-25T16:30:09;12.80;99.90
2212;DHT22;48849;48.758;9.158;2023-04-25T16:32:39;12.80;99.90
2212;DHT22;48849;48.758;9.158;2023-04-25T16:35:10;12.80;99.90
2212;DHT22;48849;48.758;9.158;2023-04-25T16:37:40;12.70;99.90
2212;DHT22;48849;48.758;9.158;2023-04-25T16:40:13;12.70;99.90
2212;DHT22;48849;48.758;9.158;2023-04-25T16:42:58;12.60;99.90
2212;DHT22;48849;48.758;9.158;2023-04-25T16:45:34;12.60;99.90
2212;DHT22;48849;48.758;9.158;2023-04-25T16:48:04;12.60;99.90
2212;DHT22;48849;48.758;9.158;2023-04-25T16:50:37;12.60;99.90
2212;DHT22;48849;48.758;9.158;2023-04-25T16:53:05;12.60;99.90
2212;DHT22;48849;48.758;9.158;2023-04-25T16:55:36;12.60;99.90
2212;DHT22;48849;48.758;9.158;2023-04-25T16:58:10;12.60;99.90
2212;DHT22;48849;48.758;9.158;2023-04-25T17:00:41;12.60;99.90
2212;DHT22;48849;48.758;9.158;2023-04-25T17:03:09;12.60;99.90
2212;DHT22;48849;48.758;9.158;2023-04-25T17:05:36;12.60;99.90
2212;DHT22;48849;48.758;9.158;2023-04-25T17:08:03;12.70;99.90
2212;DHT22;48849;48.758;9.158;2023-04-25T17:10:34;12.70;99.90
2212;DHT22;48849;48.758;9.158;2023-04-25T17:13:15;12.60;99.90
2212;DHT22;48849;48.758;9.158;2023-04-25T17:15:44;12.60;99.90
2212;DHT22;48849;48.758;9.158;2023-04-25T17:18:21;12.60;99.90
2212;DHT22;48849;48.758;9.158;2023-04-25T17:20:55;12.60;99.90
2212;DHT22;48849;48.758;9.158;2023-04-25T17:23:26;12.50;99.90
2212;DHT22;48849;48.758;9.158;2023-04-25T17:25:56;12.60;99.90
2212;DHT22;48849;48.758;9.158;2023-04-25T17:28:55;12.60;99.90
2212;DHT22;48849;48.758;9.158;2023-04-25T17:31:24;12.60;99.90
2212;DHT22;48849;48.758;9.158;2023-04-25T17:33:57;12.70;99.90
2212;DHT22;48849;48.758;9.158;2023-04-25T17:36:35;12.70;99.90
2212;DHT22;48849;48.758;9.158;2023-04-25T17:39:13;12.70;99.90
2212;DHT22;48849;48.758;9.158;2023-04-25T17:41:42;12.70;99.90
2212;DHT22;48849;48.758;9.158;2023-04-25T17:44:11;12.70;99.90
2212;DHT22;48849;48.758;9.158;2023-04-25T17:46:43;12.80;99.90
2212;DHT22;48849;48.758;9.158;2023-04-25T17:49:17;12.80;99.90
2212;DHT22;48849;48.758;9.158;2023-04-25T17:51:47;12.70;99.90
2212;DHT22;48849;48.758;9.158;2023-04-25T17:54:18;12.70;99.90
2212;DHT22;48849;48.758;9.158;2023-04-25T17:56:46;12.60;99.90
2212;DHT22;48849;48.758;9.158;2023-04-25T17:59:19;12.60;99.90
2212;DHT22;48849;48.758;9.158;2023-04-25T18:01:53;12.70;99.90
2212;DHT22;48849;48.758;9.158;2023-04-25T18:04:24;12.60;99.90
2212;DHT22;48849;48.758;9.158;2023-04-25T18:06:56;12.60;99.90
2212;DHT22;48849;48.758;9.158;2023-04-25T18:09:24;12.60;99.90
2212;DHT22;48849;48.758;9.158;2023-04-25T18:11:51;12.60;99.90
2212;DHT22;48849;48.758;9.158;2023-04-25T18:14:20;12.60;99.90
2212;DHT22;48849;48.758;9.158;2023-04-25T18:16:50;12.50;99.90
2212;DHT22;48849;48.758;9.158;2023-04-25T18:19:17;12.50;99.90
2212;DHT22;48849;48.758;9.158;2023-04-25T18:21:47;12.40;99.90
2212;DHT22;48849;48.758;9.158;2023-04-25T18:24:14;12.30;99.90
2212;DHT22;48849;48.758;9.158;2023-04-25T18:26:42;12.20;99.90
2212;DHT22;48849;48.758;9.158;2023-04-25T18:29:10;12.10;99.90
2212;DHT22;48849;48.758;9.158;2023-04-25T18:31:39;12.20;99.90
2212;DHT22;48849;48.758;9.158;2023-04-25T18:34:06;12.00;99.90
2212;DHT22;48849;48.758;9.158;2023-04-25T18:36:33;11.80;99.90
2212;DHT22;48849;48.758;9.158;2023-04-25T18:39:00;11.80;99.90
2212;DHT22;48849;48.758;9.158;2023-04-25T18:41:30;11.80;99.90
2212;DHT22;48849;48.758;9.158;2023-04-25T18:43:57;11.90;99.90
2212;DHT22;48849;48.758;9.158;2023-04-25T18:46:27;11.70;99.90
2212;DHT22;48849;48.758;9.158;2023-04-25T18:48:55;11.70;99.90
2212;DHT22;48849;48.758;9.158;2023-04-25T18:51:23;12.10;99.90
2212;DHT22;48849;48.758;9.158;2023-04-25T18:53:52;11.70;99.90
2212;DHT22;48849;48.758;9.158;2023-04-25T18:56:19;11.60;99.90
2212;DHT22;48849;48.758;9.158;2023-04-25T18:58:47;11.40;99.90
2212;DHT22;48849;48.758;9.158;2023-04-25T19:01:15;11.70;99.90
2212;DHT22;48849;48.758;9.158;2023-04-25T19:03:42;12.80;99.90
2212;DHT22;48849;48.758;9.158;2023-04-25T19:06:13;11.70;99.90
2212;DHT22;48849;48.758;9.158;2023-04-25T19:08:41;11.90;99.90
2212;DHT22;48849;48.758;9.158;2023-04-25T19:11:10;11.60;99.90
2212;DHT22;48849;48.758;9.158;2023-04-25T19:13:40;11.60;99.90